RORVIK / RYUM current weather conditions

sailwx.info

Wind from 070 at 7 knots

Air temperature 2.0° C
Dewpoint -1.0° C

Last reported at 2014-Oct-31 19:20 UTC.
Time now 2014-Nov-01 13:25 UTC

Location: N 64°50' E 011°09'.
View on Google Maps.

See reports from other nearby stations

  
Tides and Currents Weather Stations Pressure Air Temp Water Temp Dewpoint Dewpoint Depression Visibility Wind Speed Wind Dir Waves Ship Positions
date/time (UTC)wind fromknots sea level pressurealtimeterstation pressurevisibilityair tempwater tempwave heightnotes
2014-Oct-31 19:20 070 7 2.0
2014-Oct-31 18:50 060 7 2.0
2014-Oct-31 18:20 060 10 2.0
2014-Oct-31 17:50 060 9 5.4 2.0
2014-Oct-31 17:20 060 7 5.4 2.0
2014-Oct-31 16:50 060 6 5.4 2.0
2014-Oct-31 16:20 060 5 5.4 2.0
2014-Oct-31 15:50 070 4 5.4 2.0
2014-Oct-31 15:20 090 5 5.4 2.0
2014-Oct-31 14:50 080 5 5.4 2.0
2014-Oct-31 13:50 060 4 5.4 4.0
2014-Oct-31 13:20 060 4 5.4 4.0
2014-Oct-31 12:20 070 5 5.4 5.0
2014-Oct-31 11:50 070 5 5.4 5.0
2014-Oct-31 11:20 070 5 5.4 5.0
2014-Oct-31 10:50 090 6 5.4 5.0
2014-Oct-31 10:20 090 7 5.4 5.0
2014-Oct-31 09:50 120 6 5.4 4.0
2014-Oct-31 08:50 080 5 5.4 3.0
2014-Oct-31 08:20 090 4 5.4 3.0
2014-Oct-31 07:50 090 4 5.4 3.0
2014-Oct-31 07:20 080 3 5.4 2.0
2014-Oct-31 06:50 5.4 3.0
2014-Oct-31 06:20 5.4 3.0
2014-Oct-31 05:50 040 3 5.4 3.0
2014-Oct-31 05:20 5.4 3.0
2014-Oct-31 04:50 5.4 3.0
2014-Oct-30 21:20 250 13 5.4 7.0
2014-Oct-30 20:50 260 13 5.4 6.0
2014-Oct-30 20:20 280 13 5.4 6.0 Light rain showers.
2014-Oct-30 19:20 260 14 5.4 7.0
2014-Oct-30 18:50 260 14 5.4 7.0
2014-Oct-30 18:20 260 15 5.4 7.0
2014-Oct-30 17:50 260 14 5.4 7.0
2014-Oct-30 17:20 260 16 5.4 7.0
2014-Oct-30 16:50 260 16 5.4 7.0
2014-Oct-30 16:20 260 16 5.4 7.0 Showers in the vicinity.
2014-Oct-30 15:50 260 17 5.4 7.0 Showers in the vicinity.
2014-Oct-30 15:20 280 16 gusting 27 5.4 5.0 Light rain showers.
2014-Oct-30 14:50 260 19 5.4 7.0 Light rain showers.
2014-Oct-30 14:20 280 15 gusting 26 5.4 6.0 Showers in the vicinity.
2014-Oct-30 13:50 280 17 5.4 6.0 Light rain showers.
2014-Oct-30 13:20 260 19 5.4 7.0 Showers in the vicinity.